Time;durP1;ratioP1;P1;durP2;ratioP2;P2;SDS_P1;SDS_P2;PMS_P1;PMS_P2;Temp;Humidity;BMP_temperature;BMP_pressure;BME280_temperature;BME280_humidity;BME280_pressure;Samples;Min_cycle;Max_cycle;Signal;HPM_P1;HPM_P2
2023/09/10 00:01:09;;;;;;;0.15;0.15;;;;;;;;;;5038502;28;20128;-84
2023/09/10 00:03:35;;;;;;;0.20;0.20;;;;;;;;;;5037508;28;20069;-85
2023/09/10 00:06:01;;;;;;;0.28;0.28;;;;;;;;;;5021150;28;20486;-85
2023/09/10 00:08:28;;;;;;;0.28;0.28;;;;;;;;;;5039141;28;20067;-84
2023/09/10 00:10:56;;;;;;;0.00;0.00;;;;;;;;;;5022762;28;20105;-83
2023/09/10 00:13:22;;;;;;;0.20;0.20;;;;;;;;;;5038705;28;20119;-85
2023/09/10 00:15:48;;;;;;;0.20;0.20;;;;;;;;;;5021954;28;20041;-85
2023/09/10 00:18:15;;;;;;;0.10;0.10;;;;;;;;;;5021079;28;20051;-85
2023/09/10 00:20:41;;;;;;;0.30;0.30;;;;;;;;;;5022527;28;20103;-85
2023/09/10 00:23:07;;;;;;;0.20;0.20;;;;;;;;;;5021871;28;20081;-85
2023/09/10 00:25:33;;;;;;;0.30;0.30;;;;;;;;;;5021817;28;20041;-85
2023/09/10 00:27:59;;;;;;;0.10;0.10;;;;;;;;;;5020787;28;20052;-85
2023/09/10 00:30:27;;;;;;;0.20;0.20;;;;;;;;;;5037572;28;20045;-84
2023/09/10 00:32:53;;;;;;;0.10;0.10;;;;;;;;;;5037570;28;20045;-85
2023/09/10 00:35:19;;;;;;;0.20;0.20;;;;;;;;;;5020525;28;20124;-85
2023/09/10 00:37:45;;;;;;;0.15;0.15;;;;;;;;;;5020201;28;20037;-85
2023/09/10 00:40:12;;;;;;;0.20;0.20;;;;;;;;;;5037986;28;20068;-85
2023/09/10 00:42:38;;;;;;;0.30;0.30;;;;;;;;;;5020823;28;20052;-84
2023/09/10 00:45:05;;;;;;;0.28;0.28;;;;;;;;;;5020535;28;20128;-85
2023/09/10 00:47:32;;;;;;;0.20;0.20;;;;;;;;;;5036088;28;20437;-85
2023/09/10 00:49:58;;;;;;;0.30;0.30;;;;;;;;;;5037654;28;20243;-84
2023/09/10 00:52:25;;;;;;;0.30;0.30;;;;;;;;;;5021028;28;20045;-84
2023/09/10 00:54:51;;;;;;;0.22;0.22;;;;;;;;;;5037494;28;20033;-85
2023/09/10 00:57:17;;;;;;;0.30;0.30;;;;;;;;;;5020316;28;20103;-84
2023/09/10 00:59:44;;;;;;;0.10;0.10;;;;;;;;;;5021136;28;20037;-85
2023/09/10 01:02:12;;;;;;;0.20;0.20;;;;;;;;;;5021179;28;20041;-85
2023/09/10 01:04:38;;;;;;;0.20;0.20;;;;;;;;;;5020618;28;20077;-84
2023/09/10 01:07:04;;;;;;;0.22;0.22;;;;;;;;;;5020393;28;20049;-85
2023/09/10 01:09:31;;;;;;;0.40;0.40;;;;;;;;;;5019861;28;20041;-84
2023/09/10 01:12:12;;;;;;;0.15;0.15;;;;;;;;;;5020503;28;20041;-85
2023/09/10 01:14:38;;;;;;;0.20;0.20;;;;;;;;;;5019740;28;20394;-85
2023/09/10 01:17:10;;;;;;;0.15;0.15;;;;;;;;;;5020432;28;20041;-85
2023/09/10 01:19:52;;;;;;;0.17;0.17;;;;;;;;;;5020971;28;20111;-85
2023/09/10 01:22:18;;;;;;;0.10;0.10;;;;;;;;;;5020296;28;20037;-84
2023/09/10 01:24:44;;;;;;;0.10;0.10;;;;;;;;;;5020715;28;20114;-84
2023/09/10 01:27:11;;;;;;;0.20;0.20;;;;;;;;;;5019727;28;20034;-84
2023/09/10 01:29:37;;;;;;;0.20;0.20;;;;;;;;;;5020975;28;20045;-84
2023/09/10 01:32:05;;;;;;;0.30;0.30;;;;;;;;;;5036689;28;20060;-84
2023/09/10 01:34:34;;;;;;;0.10;0.10;;;;;;;;;;5019988;28;20414;-85
2023/09/10 01:37:06;;;;;;;0.75;0.75;;;;;;;;;;5019805;28;20045;-85
2023/09/10 01:39:37;;;;;;;0.30;0.30;;;;;;;;;;5020041;28;20042;-84
2023/09/10 01:42:06;;;;;;;0.20;0.20;;;;;;;;;;5018920;28;20044;-85
2023/09/10 01:44:33;;;;;;;0.13;0.13;;;;;;;;;;5019482;28;20017;-85
2023/09/10 01:47:00;;;;;;;0.10;0.10;;;;;;;;;;5036488;28;20383;-85
2023/09/10 01:49:26;;;;;;;0.20;0.20;;;;;;;;;;5020373;28;20045;-85
2023/09/10 01:51:52;;;;;;;0.20;0.20;;;;;;;;;;5019784;28;20077;-84
2023/09/10 01:54:18;;;;;;;0.13;0.13;;;;;;;;;;5020002;28;20049;-85
2023/09/10 01:56:44;;;;;;;0.10;0.10;;;;;;;;;;5020257;28;20069;-85
2023/09/10 01:59:10;;;;;;;0.30;0.30;;;;;;;;;;5024313;28;20033;-85
2023/09/10 02:01:36;;;;;;;0.20;0.20;;;;;;;;;;5000458;28;20049;-85
2023/09/10 02:04:03;;;;;;;0.10;0.10;;;;;;;;;;4999518;28;20125;-85
2023/09/10 02:06:29;;;;;;;0.20;0.20;;;;;;;;;;5004992;28;20034;-85
2023/09/10 02:08:55;;;;;;;0.20;0.20;;;;;;;;;;5020417;28;20073;-85
2023/09/10 02:11:21;;;;;;;0.20;0.20;;;;;;;;;;5019863;28;20046;-85
2023/09/10 02:13:47;;;;;;;0.20;0.20;;;;;;;;;;5029478;28;20423;-85
2023/09/10 02:16:13;;;;;;;0.20;0.20;;;;;;;;;;5004634;28;20021;-85
2023/09/10 02:18:39;;;;;;;0.20;0.20;;;;;;;;;;5021196;28;20080;-84
2023/09/10 02:21:09;;;;;;;0.20;0.20;;;;;;;;;;5020563;28;20044;-85
2023/09/10 02:23:35;;;;;;;0.25;0.25;;;;;;;;;;5036000;28;20049;-85
2023/09/10 02:26:05;;;;;;;0.30;0.30;;;;;;;;;;5036393;28;20084;-85
2023/09/10 02:28:32;;;;;;;0.20;0.20;;;;;;;;;;5036407;28;20506;-85
2023/09/10 02:31:04;;;;;;;0.10;0.10;;;;;;;;;;5035801;28;20520;-85
2023/09/10 02:33:30;;;;;;;0.20;0.20;;;;;;;;;;5019265;28;20041;-85
2023/09/10 02:35:56;;;;;;;0.15;0.15;;;;;;;;;;5039273;28;20536;-85
2023/09/10 02:38:24;;;;;;;0.20;0.20;;;;;;;;;;5024118;28;20037;-84
2023/09/10 02:40:50;;;;;;;0.10;0.10;;;;;;;;;;5023943;28;20405;-85
2023/09/10 02:43:16;;;;;;;0.20;0.20;;;;;;;;;;5039963;28;20041;-85
2023/09/10 02:45:42;;;;;;;0.20;0.20;;;;;;;;;;5023364;28;20063;-85
2023/09/10 02:48:08;;;;;;;0.20;0.20;;;;;;;;;;5023336;28;20041;-84
2023/09/10 02:50:34;;;;;;;0.20;0.20;;;;;;;;;;5023056;28;20049;-85
2023/09/10 02:53:00;;;;;;;0.20;0.20;;;;;;;;;;5023045;28;20068;-84
2023/09/10 02:55:26;;;;;;;0.10;0.10;;;;;;;;;;5022394;28;20041;-84
2023/09/10 02:57:52;;;;;;;0.20;0.20;;;;;;;;;;5022896;28;20124;-84
2023/09/10 03:00:25;;;;;;;0.10;0.10;;;;;;;;;;5023049;28;20064;-84
2023/09/10 03:03:00;;;;;;;0.10;0.10;;;;;;;;;;5022449;28;20033;-85
2023/09/10 03:05:26;;;;;;;0.25;0.25;;;;;;;;;;5022250;28;20143;-84
2023/09/10 03:07:53;;;;;;;0.10;0.10;;;;;;;;;;5022432;28;20037;-83
2023/09/10 03:10:19;;;;;;;0.28;0.28;;;;;;;;;;5021139;28;20041;-84
2023/09/10 03:12:45;;;;;;;0.10;0.10;;;;;;;;;;5038366;28;20397;-84
2023/09/10 03:15:11;;;;;;;0.10;0.10;;;;;;;;;;5021366;28;20503;-84
2023/09/10 03:17:37;;;;;;;0.30;0.30;;;;;;;;;;5022708;28;20132;-85
2023/09/10 03:20:05;;;;;;;0.10;0.10;;;;;;;;;;5022834;28;20092;-85
2023/09/10 03:22:31;;;;;;;0.30;0.30;;;;;;;;;;5039283;28;20044;-85
2023/09/10 03:24:58;;;;;;;0.20;0.20;;;;;;;;;;5022492;28;20472;-84
2023/09/10 03:27:24;;;;;;;0.10;0.10;;;;;;;;;;5023550;28;20025;-85
2023/09/10 03:29:50;;;;;;;0.20;0.20;;;;;;;;;;5020537;28;20073;-85
2023/09/10 03:32:16;;;;;;;0.20;0.20;;;;;;;;;;5038084;28;20401;-85
2023/09/10 03:34:42;;;;;;;0.20;0.20;;;;;;;;;;5020621;28;20064;-85
2023/09/10 03:37:08;;;;;;;0.10;0.10;;;;;;;;;;5021894;28;20044;-84
2023/09/10 03:39:34;;;;;;;0.25;0.25;;;;;;;;;;5021313;28;20394;-85
2023/09/10 03:42:00;;;;;;;0.20;0.20;;;;;;;;;;5021660;28;20038;-85
2023/09/10 03:44:26;;;;;;;0.20;0.20;;;;;;;;;;5021726;28;20106;-84
2023/09/10 03:46:53;;;;;;;0.20;0.20;;;;;;;;;;5021106;28;20064;-84
2023/09/10 03:49:19;;;;;;;0.20;0.20;;;;;;;;;;5021023;28;20071;-82
2023/09/10 03:51:46;;;;;;;0.20;0.20;;;;;;;;;;5019558;28;20445;-84
2023/09/10 03:54:12;;;;;;;0.10;0.10;;;;;;;;;;5019854;28;20489;-84
2023/09/10 03:56:41;;;;;;;0.20;0.20;;;;;;;;;;5021610;28;20121;-85
2023/09/10 03:59:08;;;;;;;0.08;0.08;;;;;;;;;;5038018;28;20041;-85
2023/09/10 04:01:35;;;;;;;0.20;0.20;;;;;;;;;;5021691;28;20068;-85
2023/09/10 04:04:01;;;;;;;0.00;0.00;;;;;;;;;;5020951;28;20612;-85
2023/09/10 04:06:27;;;;;;;0.10;0.10;;;;;;;;;;5021407;28;20255;-85
2023/09/10 04:08:53;;;;;;;0.17;0.17;;;;;;;;;;5021335;28;20083;-86
2023/09/10 04:11:19;;;;;;;0.10;0.10;;;;;;;;;;5038322;28;20111;-85
2023/09/10 04:13:45;;;;;;;0.20;0.20;;;;;;;;;;5020234;28;20054;-84
2023/09/10 04:16:11;;;;;;;0.10;0.10;;;;;;;;;;5037405;28;20061;-85
2023/09/10 04:18:37;;;;;;;0.20;0.20;;;;;;;;;;5030137;28;20540;-85
2023/09/10 04:21:04;;;;;;;0.20;0.20;;;;;;;;;;5001495;28;20095;-85
2023/09/10 04:23:30;;;;;;;0.08;0.08;;;;;;;;;;5001519;28;20072;-86
2023/09/10 04:25:56;;;;;;;0.10;0.10;;;;;;;;;;5021046;28;20045;-84
2023/09/10 04:28:22;;;;;;;0.20;0.20;;;;;;;;;;5021675;28;20050;-84
2023/09/10 04:30:48;;;;;;;0.10;0.10;;;;;;;;;;5020680;28;20120;-86
2023/09/10 04:33:16;;;;;;;0.17;0.17;;;;;;;;;;5020598;28;20085;-86
2023/09/10 04:35:49;;;;;;;0.30;0.30;;;;;;;;;;5021312;28;20444;-85
2023/09/10 04:38:15;;;;;;;0.20;0.20;;;;;;;;;;5020801;28;20128;-85
2023/09/10 04:40:41;;;;;;;0.22;0.22;;;;;;;;;;5021422;28;20077;-85
2023/09/10 04:43:08;;;;;;;0.10;0.10;;;;;;;;;;5021141;28;20510;-85
2023/09/10 04:45:34;;;;;;;0.10;0.10;;;;;;;;;;5020402;28;20037;-85
2023/09/10 04:48:02;;;;;;;0.25;0.25;;;;;;;;;;5018700;28;20061;-85
2023/09/10 04:50:28;;;;;;;0.10;0.10;;;;;;;;;;5001381;28;20041;-85
2023/09/10 04:52:54;;;;;;;0.17;0.17;;;;;;;;;;5001448;28;20131;-85
2023/09/10 04:55:20;;;;;;;0.28;0.28;;;;;;;;;;5016954;28;20042;-85
2023/09/10 04:57:48;;;;;;;0.20;0.20;;;;;;;;;;5019566;28;20041;-85
2023/09/10 05:00:14;;;;;;;0.20;0.20;;;;;;;;;;5036967;28;20516;-84
2023/09/10 05:02:40;;;;;;;0.10;0.10;;;;;;;;;;5020648;28;20091;-84
2023/09/10 05:05:06;;;;;;;0.20;0.20;;;;;;;;;;5020922;28;20037;-84
2023/09/10 05:07:32;;;;;;;0.20;0.20;;;;;;;;;;5020397;28;20060;-83
2023/09/10 05:09:58;;;;;;;0.25;0.25;;;;;;;;;;5021111;28;20030;-83
2023/09/10 05:12:24;;;;;;;0.10;0.10;;;;;;;;;;5020500;28;20040;-83
2023/09/10 05:14:50;;;;;;;0.15;0.15;;;;;;;;;;5020057;28;20034;-84
2023/09/10 05:17:16;;;;;;;0.10;0.10;;;;;;;;;;5019026;28;20490;-84
2023/09/10 05:19:44;;;;;;;0.10;0.10;;;;;;;;;;5020420;28;20049;-84
2023/09/10 05:22:10;;;;;;;0.10;0.10;;;;;;;;;;5020893;28;20079;-84
2023/09/10 05:24:36;;;;;;;0.10;0.10;;;;;;;;;;5020731;28;20033;-84
2023/09/10 05:27:02;;;;;;;0.00;0.00;;;;;;;;;;5020454;28;20041;-84
2023/09/10 05:29:29;;;;;;;0.17;0.17;;;;;;;;;;5019946;28;20120;-84
2023/09/10 05:31:55;;;;;;;0.20;0.20;;;;;;;;;;5020207;28;20045;-84
2023/09/10 05:34:20;;;;;;;0.10;0.10;;;;;;;;;;5020178;28;20045;-84
2023/09/10 05:36:48;;;;;;;0.10;0.10;;;;;;;;;;5019410;28;20047;-84
2023/09/10 05:39:14;;;;;;;0.10;0.10;;;;;;;;;;5019602;28;20064;-84
2023/09/10 05:41:40;;;;;;;0.10;0.10;;;;;;;;;;5020757;28;20044;-84
2023/09/10 05:44:06;;;;;;;0.15;0.15;;;;;;;;;;5019459;28;20037;-84
2023/09/10 05:46:33;;;;;;;0.10;0.10;;;;;;;;;;5036357;28;20048;-84
2023/09/10 05:48:59;;;;;;;0.20;0.20;;;;;;;;;;5019646;28;20094;-84
2023/09/10 05:51:25;;;;;;;0.05;0.05;;;;;;;;;;5019177;28;20123;-82
2023/09/10 05:53:51;;;;;;;0.08;0.08;;;;;;;;;;5031403;28;20546;-83
2023/09/10 05:56:17;;;;;;;0.20;0.20;;;;;;;;;;5010418;28;20096;-84
2023/09/10 05:58:43;;;;;;;0.20;0.20;;;;;;;;;;5036204;28;20049;-84
2023/09/10 06:01:09;;;;;;;0.10;0.10;;;;;;;;;;5017968;28;20029;-84
2023/09/10 06:03:35;;;;;;;0.30;0.30;;;;;;;;;;5018189;28;20128;-84
2023/09/10 06:06:01;;;;;;;0.10;0.10;;;;;;;;;;5020852;28;20068;-84
2023/09/10 06:08:29;;;;;;;0.10;0.10;;;;;;;;;;4999874;28;20077;-84
2023/09/10 06:10:56;;;;;;;0.30;0.30;;;;;;;;;;5003492;28;20045;-85
2023/09/10 06:13:22;;;;;;;0.28;0.28;;;;;;;;;;5003419;28;20568;-85
2023/09/10 06:15:48;;;;;;;0.20;0.20;;;;;;;;;;5031688;28;20553;-84
2023/09/10 06:18:14;;;;;;;0.10;0.10;;;;;;;;;;5012909;28;20076;-85
2023/09/10 06:20:40;;;;;;;0.30;0.30;;;;;;;;;;5022359;28;20040;-85
2023/09/10 06:23:06;;;;;;;0.20;0.20;;;;;;;;;;5026071;28;20041;-89
2023/09/10 06:25:35;;;;;;;0.00;0.00;;;;;;;;;;5042403;28;20045;-90
2023/09/10 06:28:01;;;;;;;0.10;0.10;;;;;;;;;;5039762;28;20037;-89
2023/09/10 06:30:27;;;;;;;0.30;0.30;;;;;;;;;;5032246;28;20076;-88
2023/09/10 06:32:53;;;;;;;0.10;0.10;;;;;;;;;;5041853;28;20395;-89
2023/09/10 06:35:19;;;;;;;0.20;0.20;;;;;;;;;;5023769;28;20037;-88
2023/09/10 06:37:48;;;;;;;0.08;0.08;;;;;;;;;;5041603;28;20041;-88
2023/09/10 06:40:14;;;;;;;0.13;0.13;;;;;;;;;;5025963;28;20095;-89
2023/09/10 06:42:40;;;;;;;0.17;0.17;;;;;;;;;;5025839;28;20042;-90
2023/09/10 06:45:07;;;;;;;0.30;0.30;;;;;;;;;;5025576;28;20034;-89
2023/09/10 06:47:33;;;;;;;0.10;0.10;;;;;;;;;;5023333;28;20453;-88
2023/09/10 06:50:07;;;;;;;0.17;0.17;;;;;;;;;;5040554;28;20084;-88
2023/09/10 06:52:33;;;;;;;0.10;0.10;;;;;;;;;;5035421;28;20421;-88
2023/09/10 06:55:00;;;;;;;0.20;0.20;;;;;;;;;;5025013;28;20047;-88
2023/09/10 06:57:28;;;;;;;0.10;0.10;;;;;;;;;;5040154;28;20966;-88
2023/09/10 06:59:56;;;;;;;0.20;0.20;;;;;;;;;;5025347;28;20102;-89
2023/09/10 07:02:22;;;;;;;0.20;0.20;;;;;;;;;;5029686;28;20092;-89
2023/09/10 07:04:48;;;;;;;0.20;0.20;;;;;;;;;;5031689;28;20037;-88
2023/09/10 07:07:19;;;;;;;0.05;0.05;;;;;;;;;;5041226;28;20064;-89
2023/09/10 07:09:45;;;;;;;0.20;0.20;;;;;;;;;;5022083;28;20042;-89
2023/09/10 07:12:11;;;;;;;0.03;0.03;;;;;;;;;;5006019;28;20072;-88
2023/09/10 07:14:37;;;;;;;1.08;1.00;;;;;;;;;;5020547;28;20050;-88
2023/09/10 07:17:03;;;;;;;0.10;0.10;;;;;;;;;;5004345;28;20038;-89
2023/09/10 07:19:29;;;;;;;0.13;0.13;;;;;;;;;;5003164;28;20046;-88
2023/09/10 07:21:55;;;;;;;0.10;0.10;;;;;;;;;;5004160;28;20406;-90
2023/09/10 07:24:21;;;;;;;0.20;0.20;;;;;;;;;;5004611;28;20042;-88
2023/09/10 07:26:47;;;;;;;0.20;0.20;;;;;;;;;;5020890;28;20482;-87
2023/09/10 07:29:16;;;;;;;0.15;0.15;;;;;;;;;;5004453;28;20042;-89
2023/09/10 07:31:42;;;;;;;0.10;0.10;;;;;;;;;;5004301;28;20048;-87
2023/09/10 07:34:09;;;;;;;0.20;0.20;;;;;;;;;;5003029;28;20096;-87
2023/09/10 07:36:35;;;;;;;0.08;0.08;;;;;;;;;;5019812;28;20553;-89
2023/09/10 07:39:01;;;;;;;0.10;0.10;;;;;;;;;;5024582;28;20620;-88
2023/09/10 07:41:27;;;;;;;0.28;0.28;;;;;;;;;;5024199;28;20060;-88
2023/09/10 07:43:53;;;;;;;0.10;0.10;;;;;;;;;;5019734;28;20034;-88
2023/09/10 07:46:19;;;;;;;0.10;0.10;;;;;;;;;;5024299;28;20083;-87
2023/09/10 07:48:45;;;;;;;0.20;0.20;;;;;;;;;;5042509;28;20033;-88
2023/09/10 07:51:11;;;;;;;0.10;0.10;;;;;;;;;;5042608;28;20041;-87
2023/09/10 07:53:37;;;;;;;0.10;0.10;;;;;;;;;;5024312;28;20045;-87
2023/09/10 07:56:03;;;;;;;0.10;0.10;;;;;;;;;;5026104;28;20083;-88
2023/09/10 07:58:29;;;;;;;0.30;0.30;;;;;;;;;;5024628;28;20041;-87
2023/09/10 08:00:58;;;;;;;0.17;0.17;;;;;;;;;;5040556;28;20033;-87
2023/09/10 08:03:25;;;;;;;0.20;0.20;;;;;;;;;;5024570;28;20516;-88
2023/09/10 08:05:51;;;;;;;0.10;0.10;;;;;;;;;;5042878;28;20042;-88
2023/09/10 08:08:17;;;;;;;0.08;0.08;;;;;;;;;;5042301;28;20095;-88
2023/09/10 08:10:44;;;;;;;0.10;0.10;;;;;;;;;;5042005;28;20041;-87
2023/09/10 08:13:12;;;;;;;0.15;0.15;;;;;;;;;;5040806;28;20509;-88
2023/09/10 08:15:38;;;;;;;0.10;0.10;;;;;;;;;;5040909;28;20045;-87
2023/09/10 08:18:08;;;;;;;0.10;0.10;;;;;;;;;;5024971;28;20049;-88
2023/09/10 08:20:34;;;;;;;0.20;0.20;;;;;;;;;;5041894;28;20036;-88
2023/09/10 08:23:00;;;;;;;0.00;0.00;;;;;;;;;;5041289;28;20409;-88
2023/09/10 08:25:26;;;;;;;0.10;0.10;;;;;;;;;;5022980;28;20041;-87
2023/09/10 08:27:52;;;;;;;0.10;0.10;;;;;;;;;;5023884;28;20052;-88
2023/09/10 08:30:18;;;;;;;0.10;0.10;;;;;;;;;;5025136;28;20041;-88
2023/09/10 08:32:47;;;;;;;0.20;0.20;;;;;;;;;;5022022;28;20100;-88
2023/09/10 08:35:13;;;;;;;0.30;0.30;;;;;;;;;;5022405;28;20075;-88
2023/09/10 08:37:39;;;;;;;0.10;0.10;;;;;;;;;;5024531;28;20045;-90
2023/09/10 08:40:08;;;;;;;0.10;0.10;;;;;;;;;;5023629;28;20048;-89
2023/09/10 08:42:34;;;;;;;0.20;0.20;;;;;;;;;;5023163;28;20046;-89
2023/09/10 08:45:06;;;;;;;0.10;0.10;;;;;;;;;;5023492;28;20041;-89
2023/09/10 08:47:38;;;;;;;0.10;0.10;;;;;;;;;;5040172;28;20037;-90
2023/09/10 08:50:08;;;;;;;0.10;0.10;;;;;;;;;;5023641;28;20049;-89
2023/09/10 08:52:35;;;;;;;0.13;0.13;;;;;;;;;;5023651;28;20033;-89
2023/09/10 08:55:01;;;;;;;0.10;0.10;;;;;;;;;;5040856;28;20041;-89
2023/09/10 08:57:29;;;;;;;0.05;0.05;;;;;;;;;;5023562;28;20037;-89
2023/09/10 08:59:56;;;;;;;0.10;0.10;;;;;;;;;;5023428;28;20049;-90
2023/09/10 09:02:22;;;;;;;0.10;0.10;;;;;;;;;;5023976;28;20049;-89
2023/09/10 09:04:48;;;;;;;0.10;0.10;;;;;;;;;;5023030;28;20068;-89
2023/09/10 09:07:16;;;;;;;0.10;0.10;;;;;;;;;;5023624;28;20041;-90
2023/09/10 09:09:42;;;;;;;0.03;0.03;;;;;;;;;;5024654;28;20071;-89
2023/09/10 09:12:09;;;;;;;0.20;0.20;;;;;;;;;;5040429;28;20049;-90
2023/09/10 09:14:40;;;;;;;0.10;0.10;;;;;;;;;;5040066;28;20042;-89
2023/09/10 09:17:07;;;;;;;0.10;0.10;;;;;;;;;;5024445;28;20076;-89
2023/09/10 09:19:36;;;;;;;0.10;0.10;;;;;;;;;;5023852;28;20043;-90
2023/09/10 09:22:03;;;;;;;0.10;0.10;;;;;;;;;;5023388;28;20052;-90
2023/09/10 09:24:29;;;;;;;0.10;0.10;;;;;;;;;;5041219;28;20048;-90
2023/09/10 09:26:58;;;;;;;0.10;0.10;;;;;;;;;;5023692;28;20041;-90
2023/09/10 09:29:24;;;;;;;0.00;0.00;;;;;;;;;;5023736;28;20034;-90
2023/09/10 09:31:50;;;;;;;0.13;0.13;;;;;;;;;;5023204;28;20084;-90
2023/09/10 09:34:17;;;;;;;0.10;0.10;;;;;;;;;;5024416;28;20569;-90
2023/09/10 09:36:45;;;;;;;0.10;0.10;;;;;;;;;;5024274;28;20045;-90
2023/09/10 09:39:17;;;;;;;0.03;0.03;;;;;;;;;;5023986;28;20502;-90
2023/09/10 09:41:43;;;;;;;0.00;0.00;;;;;;;;;;5024838;28;20057;-90
2023/09/10 09:44:09;;;;;;;0.10;0.10;;;;;;;;;;5026106;28;20043;-90
2023/09/10 09:46:35;;;;;;;0.10;0.10;;;;;;;;;;5028914;28;20053;-90
2023/09/10 09:49:01;;;;;;;0.20;0.20;;;;;;;;;;5028437;28;20052;-90
2023/09/10 09:51:28;;;;;;;0.13;0.13;;;;;;;;;;5027899;28;20041;-90
2023/09/10 09:53:55;;;;;;;0.30;0.30;;;;;;;;;;5027618;28;20171;-89
2023/09/10 09:56:23;;;;;;;0.20;0.20;;;;;;;;;;5027321;28;20053;-89
2023/09/10 09:58:49;;;;;;;0.20;0.20;;;;;;;;;;5027218;28;20080;-90
2023/09/10 10:01:16;;;;;;;0.10;0.10;;;;;;;;;;5026898;28;20131;-89
2023/09/10 10:03:42;;;;;;;0.08;0.08;;;;;;;;;;5027294;28;20096;-89
2023/09/10 10:06:08;;;;;;;0.10;0.10;;;;;;;;;;5027775;28;20115;-90
2023/09/10 10:08:35;;;;;;;0.15;0.15;;;;;;;;;;5028126;28;20029;-90
2023/09/10 10:11:01;;;;;;;0.00;0.00;;;;;;;;;;5027758;28;20044;-90
2023/09/10 10:13:27;;;;;;;0.10;0.10;;;;;;;;;;5026115;28;20176;-89
2023/09/10 10:15:54;;;;;;;0.03;0.03;;;;;;;;;;5042379;28;20051;-90
2023/09/10 10:18:21;;;;;;;0.10;0.10;;;;;;;;;;5027511;28;20041;-89
2023/09/10 10:20:49;;;;;;;0.00;0.00;;;;;;;;;;5027908;28;20042;-89
2023/09/10 10:23:19;;;;;;;0.17;0.17;;;;;;;;;;5027137;28;20073;-89
2023/09/10 10:25:46;;;;;;;0.10;0.10;;;;;;;;;;5027120;28;20069;-89
2023/09/10 10:28:13;;;;;;;0.10;0.10;;;;;;;;;;5027932;28;20038;-90
2023/09/10 10:30:49;;;;;;;0.10;0.10;;;;;;;;;;5027418;28;20038;-89
2023/09/10 10:33:17;;;;;;;0.20;0.20;;;;;;;;;;5027220;28;20401;-89
2023/09/10 10:35:48;;;;;;;0.13;0.13;;;;;;;;;;5043151;28;20077;-88
2023/09/10 10:38:16;;;;;;;0.10;0.10;;;;;;;;;;5026194;28;20478;-89
2023/09/10 10:40:44;;;;;;;0.20;0.20;;;;;;;;;;5043784;28;20046;-89
2023/09/10 10:43:17;;;;;;;0.08;0.08;;;;;;;;;;5027498;28;20038;-89
2023/09/10 10:45:44;;;;;;;0.10;0.10;;;;;;;;;;5027215;28;20056;-88
2023/09/10 10:48:13;;;;;;;0.10;0.10;;;;;;;;;;5026992;28;20101;-89
2023/09/10 10:50:39;;;;;;;0.13;0.13;;;;;;;;;;5026947;28;20041;-88
2023/09/10 10:53:15;;;;;;;0.10;0.10;;;;;;;;;;5026150;28;20124;-89
2023/09/10 10:55:42;;;;;;;0.10;0.10;;;;;;;;;;5024435;28;20049;-88
2023/09/10 10:58:08;;;;;;;0.00;0.00;;;;;;;;;;5025782;28;20045;-89
2023/09/10 11:00:34;;;;;;;0.00;0.00;;;;;;;;;;5027650;28;20021;-90
2023/09/10 11:03:13;;;;;;;0.00;0.00;;;;;;;;;;5043990;28;20047;-90
2023/09/10 11:05:55;;;;;;;0.10;0.10;;;;;;;;;;5044077;28;20029;-90
2023/09/10 11:08:24;;;;;;;0.13;0.13;;;;;;;;;;5026681;28;20041;-90
2023/09/10 11:10:50;;;;;;;0.10;0.10;;;;;;;;;;5026325;28;20080;-89
2023/09/10 11:13:16;;;;;;;0.00;0.00;;;;;;;;;;5025946;28;20083;-89
2023/09/10 11:16:01;;;;;;;0.10;0.10;;;;;;;;;;5025877;28;20041;-90
2023/09/10 11:18:27;;;;;;;;;;;;;;;;;;5026733;28;20095;-90
2023/09/10 11:20:53;;;;;;;0.00;0.00;;;;;;;;;;5042602;28;20324;-90
2023/09/10 11:23:21;;;;;;;0.00;0.00;;;;;;;;;;5025464;28;20040;-90
2023/09/10 11:25:47;;;;;;;0.10;0.10;;;;;;;;;;5027268;28;20047;-89
2023/09/10 11:28:33;;;;;;;0.00;0.00;;;;;;;;;;5042242;28;20049;-89
2023/09/10 11:30:59;;;;;;;0.10;0.10;;;;;;;;;;5025930;28;20053;-90
2023/09/10 11:33:29;;;;;;;0.10;0.10;;;;;;;;;;5026698;28;20037;-89
2023/09/10 11:35:58;;;;;;;0.10;0.10;;;;;;;;;;5024840;28;20068;-90
2023/09/10 11:38:28;;;;;;;0.10;0.10;;;;;;;;;;5025268;28;20046;-90
2023/09/10 11:40:54;;;;;;;0.20;0.20;;;;;;;;;;5026197;28;20086;-90
2023/09/10 11:43:20;;;;;;;0.03;0.03;;;;;;;;;;5026242;28;20034;-91
2023/09/10 11:45:46;;;;;;;0.17;0.17;;;;;;;;;;5009728;28;20494;-90
2023/09/10 11:48:12;;;;;;;0.10;0.10;;;;;;;;;;5025126;28;20064;-91
2023/09/10 11:50:38;;;;;;;0.10;0.10;;;;;;;;;;5025786;28;20053;-89
2023/09/10 11:53:04;;;;;;;0.10;0.10;;;;;;;;;;5025404;28;20436;-89
2023/09/10 11:55:30;;;;;;;0.00;0.00;;;;;;;;;;5023898;28;20056;-91
2023/09/10 11:57:57;;;;;;;0.10;0.10;;;;;;;;;;5024480;28;20037;-90
2023/09/10 12:00:24;;;;;;;0.20;0.20;;;;;;;;;;5025638;28;20041;-90
2023/09/10 12:02:50;;;;;;;0.00;0.00;;;;;;;;;;5025147;28;20079;-91
2023/09/10 12:05:16;;;;;;;0.08;0.08;;;;;;;;;;5024399;28;20065;-90
2023/09/10 12:07:44;;;;;;;0.00;0.00;;;;;;;;;;5040528;28;20041;-91
2023/09/10 12:10:12;;;;;;;1.15;1.08;;;;;;;;;;5023697;28;20033;-88
2023/09/10 12:12:39;;;;;;;0.05;0.05;;;;;;;;;;5024654;28;20092;-89
2023/09/10 12:15:05;;;;;;;0.05;0.05;;;;;;;;;;5025490;28;20045;-90
2023/09/10 12:17:31;;;;;;;0.20;0.20;;;;;;;;;;5023930;28;20482;-89
2023/09/10 12:19:58;;;;;;;0.10;0.10;;;;;;;;;;5025032;28;20131;-89
2023/09/10 12:22:24;;;;;;;0.10;0.10;;;;;;;;;;5025364;28;20038;-90
2023/09/10 12:24:50;;;;;;;0.10;0.10;;;;;;;;;;5026014;28;20369;-89
2023/09/10 12:27:16;;;;;;;0.20;0.20;;;;;;;;;;5025812;28;20129;-90
2023/09/10 12:29:43;;;;;;;0.10;0.10;;;;;;;;;;5024322;28;20057;-90
2023/09/10 12:32:09;;;;;;;0.10;0.10;;;;;;;;;;5025246;28;20049;-90
2023/09/10 12:34:36;;;;;;;0.10;0.10;;;;;;;;;;5024537;28;20043;-89
2023/09/10 12:37:02;;;;;;;0.10;0.10;;;;;;;;;;5023356;28;20065;-90
2023/09/10 12:39:28;;;;;;;0.10;0.10;;;;;;;;;;5023563;28;20423;-90
2023/09/10 12:41:56;;;;;;;0.17;0.17;;;;;;;;;;5024475;28;20042;-89
2023/09/10 12:44:22;;;;;;;0.00;0.00;;;;;;;;;;5023963;28;20076;-90
2023/09/10 12:46:49;;;;;;;0.10;0.10;;;;;;;;;;5023821;28;20060;-89
2023/09/10 12:49:15;;;;;;;0.00;0.00;;;;;;;;;;5022839;28;20042;-89
2023/09/10 12:51:42;;;;;;;0.20;0.20;;;;;;;;;;5021732;28;20056;-90
2023/09/10 12:54:08;;;;;;;0.08;0.08;;;;;;;;;;5039671;28;20041;-91
2023/09/10 12:56:38;;;;;;;0.13;0.13;;;;;;;;;;5022962;28;20052;-90
2023/09/10 12:59:06;;;;;;;0.10;0.10;;;;;;;;;;5023284;28;20136;-91
2023/09/10 13:01:32;;;;;;;0.38;0.38;;;;;;;;;;5023364;28;20033;-90
2023/09/10 13:03:58;;;;;;;0.10;0.10;;;;;;;;;;5023267;28;20041;-90
2023/09/10 13:06:24;;;;;;;0.00;0.00;;;;;;;;;;5022491;28;20048;-91
2023/09/10 13:08:50;;;;;;;0.05;0.05;;;;;;;;;;5022594;28;20045;-90
2023/09/10 13:11:16;;;;;;;0.13;0.13;;;;;;;;;;5022112;28;20041;-90
2023/09/10 13:13:42;;;;;;;0.20;0.20;;;;;;;;;;5021924;28;20083;-90
2023/09/10 13:16:08;;;;;;;0.10;0.10;;;;;;;;;;5021222;28;20046;-90
2023/09/10 13:18:34;;;;;;;0.00;0.00;;;;;;;;;;5021092;28;20045;-90
2023/09/10 13:21:00;;;;;;;0.13;0.13;;;;;;;;;;5021676;28;20056;-91
2023/09/10 13:23:26;;;;;;;0.20;0.20;;;;;;;;;;5022789;28;20037;-90
2023/09/10 13:25:52;;;;;;;0.00;0.00;;;;;;;;;;5023380;28;20050;-89
2023/09/10 13:28:18;;;;;;;0.00;0.00;;;;;;;;;;5022698;28;20051;-89
2023/09/10 13:30:44;;;;;;;0.20;0.20;;;;;;;;;;5021578;28;20095;-89
2023/09/10 13:33:10;;;;;;;0.20;0.20;;;;;;;;;;5020788;28;20038;-89
2023/09/10 13:35:39;;;;;;;0.00;0.00;;;;;;;;;;5021653;28;20045;-89
2023/09/10 13:38:06;;;;;;;0.10;0.10;;;;;;;;;;5038015;28;20077;-89
2023/09/10 13:40:36;;;;;;;0.08;0.08;;;;;;;;;;5037946;28;20095;-89
2023/09/10 13:43:02;;;;;;;0.10;0.10;;;;;;;;;;5021568;28;20060;-89
2023/09/10 13:45:28;;;;;;;0.00;0.00;;;;;;;;;;5038137;28;20049;-89
2023/09/10 13:47:54;;;;;;;0.08;0.08;;;;;;;;;;5022436;28;20128;-89
2023/09/10 13:50:20;;;;;;;0.00;0.00;;;;;;;;;;5021958;28;20052;-89
2023/09/10 13:52:46;;;;;;;0.00;0.00;;;;;;;;;;5021060;28;20406;-89
2023/09/10 13:55:12;;;;;;;0.10;0.10;;;;;;;;;;5021579;28;20033;-90
2023/09/10 13:57:38;;;;;;;0.00;0.00;;;;;;;;;;5021302;28;20051;-89
2023/09/10 14:00:06;;;;;;;0.00;0.00;;;;;;;;;;5021628;28;20073;-89
2023/09/10 14:02:35;;;;;;;0.00;0.00;;;;;;;;;;5038017;28;20452;-90
2023/09/10 14:05:02;;;;;;;0.03;0.03;;;;;;;;;;5021718;28;20087;-90
2023/09/10 14:07:28;;;;;;;0.10;0.10;;;;;;;;;;5022168;28;20053;-90
2023/09/10 14:09:54;;;;;;;0.10;0.10;;;;;;;;;;5016939;28;20048;-89
2023/09/10 14:12:21;;;;;;;0.10;0.10;;;;;;;;;;5022716;28;20045;-89
2023/09/10 14:14:47;;;;;;;0.10;0.10;;;;;;;;;;5020639;28;20109;-90
2023/09/10 14:17:13;;;;;;;0.17;0.17;;;;;;;;;;5020953;28;20125;-90
2023/09/10 14:19:39;;;;;;;0.00;0.00;;;;;;;;;;5021658;28;20065;-90
2023/09/10 14:22:05;;;;;;;0.10;0.10;;;;;;;;;;5022291;28;20056;-90
2023/09/10 14:24:31;;;;;;;0.10;0.10;;;;;;;;;;5021876;28;20129;-90
2023/09/10 14:26:58;;;;;;;0.10;0.10;;;;;;;;;;5022413;28;20050;-90
2023/09/10 14:29:26;;;;;;;0.00;0.00;;;;;;;;;;5038753;28;20046;-90
2023/09/10 14:31:56;;;;;;;0.10;0.10;;;;;;;;;;5025708;28;20045;-90
2023/09/10 14:34:22;;;;;;;0.10;0.10;;;;;;;;;;5041501;28;20052;-90
2023/09/10 14:36:48;;;;;;;0.00;0.00;;;;;;;;;;5023472;28;20084;-90
2023/09/10 14:39:16;;;;;;;0.10;0.10;;;;;;;;;;5024018;28;20050;-91
2023/09/10 14:41:42;;;;;;;0.00;0.00;;;;;;;;;;5025587;28;20415;-90